sensor_id;sensor_type;location;lat;lon;timestamp;P1;durP1;ratioP1;P2;durP2;ratioP2
20705;SDS011;10514;49.468;11.044;2024-01-30T00:01:13;9.47;;;6.23;;
20705;SDS011;10514;49.468;11.044;2024-01-30T00:03:39;14.43;;;5.87;;
20705;SDS011;10514;49.468;11.044;2024-01-30T00:06:04;9.60;;;5.70;;
20705;SDS011;10514;49.468;11.044;2024-01-30T00:08:30;11.80;;;6.33;;
20705;SDS011;10514;49.468;11.044;2024-01-30T00:10:55;11.00;;;5.90;;
20705;SDS011;10514;49.468;11.044;2024-01-30T00:13:21;11.57;;;6.10;;
20705;SDS011;10514;49.468;11.044;2024-01-30T00:15:46;14.27;;;6.43;;
20705;SDS011;10514;49.468;11.044;2024-01-30T00:18:12;10.00;;;5.93;;
20705;SDS011;10514;49.468;11.044;2024-01-30T00:20:37;12.43;;;6.37;;
20705;SDS011;10514;49.468;11.044;2024-01-30T00:23:03;13.20;;;6.53;;
20705;SDS011;10514;49.468;11.044;2024-01-30T00:25:29;12.53;;;6.33;;
20705;SDS011;10514;49.468;11.044;2024-01-30T00:27:55;11.53;;;6.33;;
20705;SDS011;10514;49.468;11.044;2024-01-30T00:30:20;17.63;;;7.10;;
20705;SDS011;10514;49.468;11.044;2024-01-30T00:32:46;10.47;;;6.27;;
20705;SDS011;10514;49.468;11.044;2024-01-30T00:35:11;11.17;;;6.13;;
20705;SDS011;10514;49.468;11.044;2024-01-30T00:37:37;10.53;;;6.20;;
20705;SDS011;10514;49.468;11.044;2024-01-30T00:40:03;9.70;;;5.80;;
20705;SDS011;10514;49.468;11.044;2024-01-30T00:42:29;11.87;;;6.27;;
20705;SDS011;10514;49.468;11.044;2024-01-30T00:44:54;10.80;;;5.70;;
20705;SDS011;10514;49.468;11.044;2024-01-30T00:47:20;9.27;;;5.70;;
20705;SDS011;10514;49.468;11.044;2024-01-30T00:49:45;12.47;;;5.90;;
20705;SDS011;10514;49.468;11.044;2024-01-30T00:52:11;11.20;;;5.70;;
20705;SDS011;10514;49.468;11.044;2024-01-30T00:54:36;10.47;;;5.40;;
20705;SDS011;10514;49.468;11.044;2024-01-30T00:57:02;12.53;;;6.17;;
20705;SDS011;10514;49.468;11.044;2024-01-30T00:59:28;9.23;;;4.97;;
20705;SDS011;10514;49.468;11.044;2024-01-30T01:01:53;11.27;;;5.77;;
20705;SDS011;10514;49.468;11.044;2024-01-30T01:04:19;9.77;;;5.90;;
20705;SDS011;10514;49.468;11.044;2024-01-30T01:06:46;11.00;;;5.37;;
20705;SDS011;10514;49.468;11.044;2024-01-30T01:09:12;12.30;;;5.30;;
20705;SDS011;10514;49.468;11.044;2024-01-30T01:11:38;12.20;;;5.47;;
20705;SDS011;10514;49.468;11.044;2024-01-30T01:14:03;9.97;;;6.20;;
20705;SDS011;10514;49.468;11.044;2024-01-30T01:16:29;9.67;;;5.30;;
20705;SDS011;10514;49.468;11.044;2024-01-30T01:18:55;10.73;;;5.50;;
20705;SDS011;10514;49.468;11.044;2024-01-30T01:21:21;10.67;;;5.57;;
20705;SDS011;10514;49.468;11.044;2024-01-30T01:23:48;9.03;;;5.30;;
20705;SDS011;10514;49.468;11.044;2024-01-30T01:26:13;8.57;;;4.73;;
20705;SDS011;10514;49.468;11.044;2024-01-30T01:28:40;9.57;;;5.37;;
20705;SDS011;10514;49.468;11.044;2024-01-30T01:31:06;8.43;;;5.13;;
20705;SDS011;10514;49.468;11.044;2024-01-30T01:33:32;10.70;;;5.50;;
20705;SDS011;10514;49.468;11.044;2024-01-30T01:35:58;12.37;;;5.20;;
20705;SDS011;10514;49.468;11.044;2024-01-30T01:38:24;9.73;;;5.23;;
20705;SDS011;10514;49.468;11.044;2024-01-30T01:40:49;9.83;;;5.67;;
20705;SDS011;10514;49.468;11.044;2024-01-30T01:43:16;8.60;;;4.63;;
20705;SDS011;10514;49.468;11.044;2024-01-30T01:45:41;9.33;;;5.27;;
20705;SDS011;10514;49.468;11.044;2024-01-30T01:48:07;6.90;;;4.83;;
20705;SDS011;10514;49.468;11.044;2024-01-30T01:50:33;9.87;;;6.17;;
20705;SDS011;10514;49.468;11.044;2024-01-30T01:53:00;13.73;;;5.93;;
20705;SDS011;10514;49.468;11.044;2024-01-30T01:55:27;9.63;;;5.00;;
20705;SDS011;10514;49.468;11.044;2024-01-30T01:57:54;9.77;;;5.40;;
20705;SDS011;10514;49.468;11.044;2024-01-30T02:00:20;8.00;;;4.37;;
20705;SDS011;10514;49.468;11.044;2024-01-30T02:02:45;8.43;;;4.40;;
20705;SDS011;10514;49.468;11.044;2024-01-30T02:05:12;9.07;;;4.40;;
20705;SDS011;10514;49.468;11.044;2024-01-30T02:07:38;9.73;;;4.50;;
20705;SDS011;10514;49.468;11.044;2024-01-30T02:10:04;7.93;;;4.67;;
20705;SDS011;10514;49.468;11.044;2024-01-30T02:12:30;9.73;;;4.60;;
20705;SDS011;10514;49.468;11.044;2024-01-30T02:14:55;9.17;;;4.60;;
20705;SDS011;10514;49.468;11.044;2024-01-30T02:17:21;11.03;;;4.60;;
20705;SDS011;10514;49.468;11.044;2024-01-30T02:19:48;7.17;;;4.30;;
20705;SDS011;10514;49.468;11.044;2024-01-30T02:22:14;8.80;;;4.97;;
20705;SDS011;10514;49.468;11.044;2024-01-30T02:24:39;8.27;;;4.13;;
20705;SDS011;10514;49.468;11.044;2024-01-30T02:27:05;8.30;;;4.57;;
20705;SDS011;10514;49.468;11.044;2024-01-30T02:29:31;9.40;;;4.50;;
20705;SDS011;10514;49.468;11.044;2024-01-30T02:31:56;8.30;;;4.60;;
20705;SDS011;10514;49.468;11.044;2024-01-30T02:34:22;10.07;;;4.83;;
20705;SDS011;10514;49.468;11.044;2024-01-30T02:36:48;8.60;;;4.33;;
20705;SDS011;10514;49.468;11.044;2024-01-30T02:39:13;8.63;;;4.80;;
20705;SDS011;10514;49.468;11.044;2024-01-30T02:41:39;8.03;;;4.90;;
20705;SDS011;10514;49.468;11.044;2024-01-30T02:44:05;10.93;;;4.87;;
20705;SDS011;10514;49.468;11.044;2024-01-30T02:46:30;8.30;;;4.83;;
20705;SDS011;10514;49.468;11.044;2024-01-30T02:48:56;9.83;;;5.40;;
20705;SDS011;10514;49.468;11.044;2024-01-30T02:51:22;7.90;;;4.53;;
20705;SDS011;10514;49.468;11.044;2024-01-30T02:53:47;11.53;;;4.67;;
20705;SDS011;10514;49.468;11.044;2024-01-30T02:56:13;10.63;;;4.80;;
20705;SDS011;10514;49.468;11.044;2024-01-30T02:58:41;9.90;;;5.00;;
20705;SDS011;10514;49.468;11.044;2024-01-30T03:01:07;9.50;;;4.77;;
20705;SDS011;10514;49.468;11.044;2024-01-30T03:03:32;9.43;;;4.60;;
20705;SDS011;10514;49.468;11.044;2024-01-30T03:06:00;8.10;;;4.80;;
20705;SDS011;10514;49.468;11.044;2024-01-30T03:08:25;8.83;;;5.00;;
20705;SDS011;10514;49.468;11.044;2024-01-30T03:10:51;8.03;;;4.30;;
20705;SDS011;10514;49.468;11.044;2024-01-30T03:13:16;7.20;;;4.10;;
20705;SDS011;10514;49.468;11.044;2024-01-30T03:15:42;8.73;;;4.63;;
20705;SDS011;10514;49.468;11.044;2024-01-30T03:18:07;7.17;;;4.10;;
20705;SDS011;10514;49.468;11.044;2024-01-30T03:20:33;9.87;;;5.00;;
20705;SDS011;10514;49.468;11.044;2024-01-30T03:22:59;8.20;;;4.83;;
20705;SDS011;10514;49.468;11.044;2024-01-30T03:25:25;7.70;;;4.50;;
20705;SDS011;10514;49.468;11.044;2024-01-30T03:27:51;9.10;;;4.03;;
20705;SDS011;10514;49.468;11.044;2024-01-30T03:30:17;8.80;;;4.60;;
20705;SDS011;10514;49.468;11.044;2024-01-30T03:32:42;8.27;;;4.40;;
20705;SDS011;10514;49.468;11.044;2024-01-30T03:35:09;8.33;;;4.60;;
20705;SDS011;10514;49.468;11.044;2024-01-30T03:37:34;9.00;;;4.70;;
20705;SDS011;10514;49.468;11.044;2024-01-30T03:40:00;8.27;;;4.30;;
20705;SDS011;10514;49.468;11.044;2024-01-30T03:42:27;7.23;;;4.20;;
20705;SDS011;10514;49.468;11.044;2024-01-30T03:44:53;7.57;;;4.27;;
20705;SDS011;10514;49.468;11.044;2024-01-30T03:47:20;7.80;;;4.20;;
20705;SDS011;10514;49.468;11.044;2024-01-30T03:49:45;8.03;;;4.67;;
20705;SDS011;10514;49.468;11.044;2024-01-30T03:52:11;8.37;;;4.47;;
20705;SDS011;10514;49.468;11.044;2024-01-30T03:54:37;8.30;;;4.53;;
20705;SDS011;10514;49.468;11.044;2024-01-30T03:57:02;9.73;;;4.73;;
20705;SDS011;10514;49.468;11.044;2024-01-30T03:59:30;8.17;;;4.23;;
20705;SDS011;10514;49.468;11.044;2024-01-30T04:01:56;9.83;;;4.77;;
20705;SDS011;10514;49.468;11.044;2024-01-30T04:04:21;9.80;;;5.03;;
20705;SDS011;10514;49.468;11.044;2024-01-30T04:06:48;12.03;;;5.30;;
20705;SDS011;10514;49.468;11.044;2024-01-30T04:09:13;10.60;;;5.57;;
20705;SDS011;10514;49.468;11.044;2024-01-30T04:11:39;12.97;;;5.73;;
20705;SDS011;10514;49.468;11.044;2024-01-30T04:14:05;9.07;;;5.43;;
20705;SDS011;10514;49.468;11.044;2024-01-30T04:16:30;9.13;;;5.17;;
20705;SDS011;10514;49.468;11.044;2024-01-30T04:18:56;9.07;;;5.23;;
20705;SDS011;10514;49.468;11.044;2024-01-30T04:21:22;10.37;;;5.63;;
20705;SDS011;10514;49.468;11.044;2024-01-30T04:23:48;8.90;;;5.33;;
20705;SDS011;10514;49.468;11.044;2024-01-30T04:26:14;10.23;;;5.60;;
20705;SDS011;10514;49.468;11.044;2024-01-30T04:28:44;9.40;;;5.30;;
20705;SDS011;10514;49.468;11.044;2024-01-30T04:31:10;9.20;;;5.50;;
20705;SDS011;10514;49.468;11.044;2024-01-30T04:33:35;9.13;;;5.20;;
20705;SDS011;10514;49.468;11.044;2024-01-30T04:36:01;7.83;;;5.57;;
20705;SDS011;10514;49.468;11.044;2024-01-30T04:38:28;11.00;;;5.77;;
20705;SDS011;10514;49.468;11.044;2024-01-30T04:40:53;8.63;;;5.67;;
20705;SDS011;10514;49.468;11.044;2024-01-30T04:43:19;9.43;;;5.53;;
20705;SDS011;10514;49.468;11.044;2024-01-30T04:45:44;8.63;;;5.97;;
20705;SDS011;10514;49.468;11.044;2024-01-30T04:48:10;11.00;;;5.57;;
20705;SDS011;10514;49.468;11.044;2024-01-30T04:50:35;8.07;;;5.13;;
20705;SDS011;10514;49.468;11.044;2024-01-30T04:53:01;8.87;;;5.37;;
20705;SDS011;10514;49.468;11.044;2024-01-30T04:55:26;8.70;;;5.80;;
20705;SDS011;10514;49.468;11.044;2024-01-30T04:57:52;8.23;;;5.60;;
20705;SDS011;10514;49.468;11.044;2024-01-30T05:00:18;8.83;;;5.63;;
20705;SDS011;10514;49.468;11.044;2024-01-30T05:02:43;8.70;;;4.90;;
20705;SDS011;10514;49.468;11.044;2024-01-30T05:05:09;12.77;;;6.23;;
20705;SDS011;10514;49.468;11.044;2024-01-30T05:07:35;9.40;;;6.07;;
20705;SDS011;10514;49.468;11.044;2024-01-30T05:10:01;8.57;;;5.60;;
20705;SDS011;10514;49.468;11.044;2024-01-30T05:12:26;9.83;;;6.17;;
20705;SDS011;10514;49.468;11.044;2024-01-30T05:14:52;12.07;;;6.43;;
20705;SDS011;10514;49.468;11.044;2024-01-30T05:17:18;13.60;;;7.10;;
20705;SDS011;10514;49.468;11.044;2024-01-30T05:19:43;14.00;;;7.80;;
20705;SDS011;10514;49.468;11.044;2024-01-30T05:22:09;11.30;;;6.17;;
20705;SDS011;10514;49.468;11.044;2024-01-30T05:24:36;11.87;;;5.93;;
20705;SDS011;10514;49.468;11.044;2024-01-30T05:27:02;8.87;;;5.40;;
20705;SDS011;10514;49.468;11.044;2024-01-30T05:29:27;10.87;;;6.07;;
20705;SDS011;10514;49.468;11.044;2024-01-30T05:31:53;10.07;;;6.10;;
20705;SDS011;10514;49.468;11.044;2024-01-30T05:34:18;9.37;;;6.40;;
20705;SDS011;10514;49.468;11.044;2024-01-30T05:36:44;9.70;;;6.00;;
20705;SDS011;10514;49.468;11.044;2024-01-30T05:39:09;9.60;;;6.13;;
20705;SDS011;10514;49.468;11.044;2024-01-30T05:41:35;10.50;;;5.70;;
20705;SDS011;10514;49.468;11.044;2024-01-30T05:44:01;10.87;;;6.23;;
20705;SDS011;10514;49.468;11.044;2024-01-30T05:46:26;37.43;;;14.37;;
20705;SDS011;10514;49.468;11.044;2024-01-30T05:48:52;12.73;;;6.90;;
20705;SDS011;10514;49.468;11.044;2024-01-30T05:51:17;12.47;;;6.73;;
20705;SDS011;10514;49.468;11.044;2024-01-30T05:53:43;9.97;;;6.10;;
20705;SDS011;10514;49.468;11.044;2024-01-30T05:56:08;10.83;;;6.40;;
20705;SDS011;10514;49.468;11.044;2024-01-30T05:58:34;13.50;;;7.97;;
20705;SDS011;10514;49.468;11.044;2024-01-30T06:01:00;10.83;;;8.17;;
20705;SDS011;10514;49.468;11.044;2024-01-30T06:03:25;12.87;;;7.40;;
20705;SDS011;10514;49.468;11.044;2024-01-30T06:05:51;11.63;;;6.80;;
20705;SDS011;10514;49.468;11.044;2024-01-30T06:08:17;11.27;;;6.37;;
20705;SDS011;10514;49.468;11.044;2024-01-30T06:10:42;10.03;;;6.10;;
20705;SDS011;10514;49.468;11.044;2024-01-30T06:13:08;8.77;;;6.10;;
20705;SDS011;10514;49.468;11.044;2024-01-30T06:15:33;14.57;;;7.27;;
20705;SDS011;10514;49.468;11.044;2024-01-30T06:17:59;11.27;;;6.60;;
20705;SDS011;10514;49.468;11.044;2024-01-30T06:20:25;9.90;;;6.40;;
20705;SDS011;10514;49.468;11.044;2024-01-30T06:22:50;10.90;;;6.77;;
20705;SDS011;10514;49.468;11.044;2024-01-30T06:25:16;11.23;;;6.90;;
20705;SDS011;10514;49.468;11.044;2024-01-30T06:27:41;10.53;;;6.77;;
20705;SDS011;10514;49.468;11.044;2024-01-30T06:30:07;11.90;;;7.57;;
20705;SDS011;10514;49.468;11.044;2024-01-30T06:32:34;14.47;;;7.10;;
20705;SDS011;10514;49.468;11.044;2024-01-30T06:35:00;10.93;;;6.80;;
20705;SDS011;10514;49.468;11.044;2024-01-30T06:37:27;13.40;;;7.10;;
20705;SDS011;10514;49.468;11.044;2024-01-30T06:39:52;9.73;;;6.70;;
20705;SDS011;10514;49.468;11.044;2024-01-30T06:42:18;11.53;;;7.27;;
20705;SDS011;10514;49.468;11.044;2024-01-30T06:44:43;11.53;;;6.87;;
20705;SDS011;10514;49.468;11.044;2024-01-30T06:47:09;13.03;;;8.70;;
20705;SDS011;10514;49.468;11.044;2024-01-30T06:49:35;11.77;;;7.03;;
20705;SDS011;10514;49.468;11.044;2024-01-30T06:52:04;14.17;;;8.00;;
20705;SDS011;10514;49.468;11.044;2024-01-30T06:54:30;13.17;;;7.83;;
20705;SDS011;10514;49.468;11.044;2024-01-30T06:56:56;14.27;;;7.70;;
20705;SDS011;10514;49.468;11.044;2024-01-30T06:59:21;14.07;;;8.13;;
20705;SDS011;10514;49.468;11.044;2024-01-30T07:01:47;14.37;;;7.93;;
20705;SDS011;10514;49.468;11.044;2024-01-30T07:04:13;14.50;;;8.17;;
20705;SDS011;10514;49.468;11.044;2024-01-30T07:06:38;20.57;;;9.87;;
20705;SDS011;10514;49.468;11.044;2024-01-30T07:09:04;15.77;;;9.17;;
20705;SDS011;10514;49.468;11.044;2024-01-30T07:11:30;20.80;;;10.93;;
20705;SDS011;10514;49.468;11.044;2024-01-30T07:13:56;16.40;;;9.17;;
20705;SDS011;10514;49.468;11.044;2024-01-30T07:16:21;14.27;;;8.17;;
20705;SDS011;10514;49.468;11.044;2024-01-30T07:18:48;14.97;;;8.30;;
20705;SDS011;10514;49.468;11.044;2024-01-30T07:21:14;12.40;;;7.97;;
20705;SDS011;10514;49.468;11.044;2024-01-30T07:23:40;14.23;;;8.33;;
20705;SDS011;10514;49.468;11.044;2024-01-30T07:26:06;15.17;;;8.20;;
20705;SDS011;10514;49.468;11.044;2024-01-30T07:28:33;12.40;;;7.63;;
20705;SDS011;10514;49.468;11.044;2024-01-30T07:30:59;14.80;;;8.73;;
20705;SDS011;10514;49.468;11.044;2024-01-30T07:33:25;14.43;;;8.57;;
20705;SDS011;10514;49.468;11.044;2024-01-30T07:35:52;13.13;;;8.33;;
20705;SDS011;10514;49.468;11.044;2024-01-30T07:38:18;15.70;;;8.43;;
20705;SDS011;10514;49.468;11.044;2024-01-30T07:40:44;15.23;;;9.07;;
20705;SDS011;10514;49.468;11.044;2024-01-30T07:43:10;14.77;;;8.23;;
20705;SDS011;10514;49.468;11.044;2024-01-30T07:45:36;15.00;;;8.73;;
20705;SDS011;10514;49.468;11.044;2024-01-30T07:48:02;15.77;;;8.40;;
20705;SDS011;10514;49.468;11.044;2024-01-30T07:50:28;14.10;;;8.80;;
20705;SDS011;10514;49.468;11.044;2024-01-30T07:52:55;14.27;;;9.93;;
20705;SDS011;10514;49.468;11.044;2024-01-30T07:55:21;17.60;;;10.27;;
20705;SDS011;10514;49.468;11.044;2024-01-30T07:57:53;15.00;;;9.00;;
20705;SDS011;10514;49.468;11.044;2024-01-30T08:00:20;14.87;;;9.30;;
20705;SDS011;10514;49.468;11.044;2024-01-30T08:02:46;16.07;;;9.80;;
20705;SDS011;10514;49.468;11.044;2024-01-30T08:05:12;14.97;;;10.20;;
20705;SDS011;10514;49.468;11.044;2024-01-30T08:07:40;17.77;;;11.13;;
20705;SDS011;10514;49.468;11.044;2024-01-30T08:10:10;14.50;;;10.10;;
20705;SDS011;10514;49.468;11.044;2024-01-30T08:12:36;18.73;;;10.53;;
20705;SDS011;10514;49.468;11.044;2024-01-30T08:15:02;19.57;;;11.03;;
20705;SDS011;10514;49.468;11.044;2024-01-30T08:17:28;16.10;;;10.23;;
20705;SDS011;10514;49.468;11.044;2024-01-30T08:19:54;17.97;;;10.60;;
20705;SDS011;10514;49.468;11.044;2024-01-30T08:22:19;17.10;;;10.60;;
20705;SDS011;10514;49.468;11.044;2024-01-30T08:24:45;17.73;;;10.53;;
20705;SDS011;10514;49.468;11.044;2024-01-30T08:27:10;17.77;;;11.00;;
20705;SDS011;10514;49.468;11.044;2024-01-30T08:29:37;16.73;;;10.37;;
20705;SDS011;10514;49.468;11.044;2024-01-30T08:32:03;17.57;;;10.77;;
20705;SDS011;10514;49.468;11.044;2024-01-30T08:34:30;15.00;;;10.17;;
20705;SDS011;10514;49.468;11.044;2024-01-30T08:36:55;17.03;;;10.70;;
20705;SDS011;10514;49.468;11.044;2024-01-30T08:39:21;16.07;;;10.90;;
20705;SDS011;10514;49.468;11.044;2024-01-30T08:41:46;14.93;;;10.47;;
20705;SDS011;10514;49.468;11.044;2024-01-30T08:44:12;14.37;;;9.90;;
20705;SDS011;10514;49.468;11.044;2024-01-30T08:46:38;16.77;;;10.30;;
20705;SDS011;10514;49.468;11.044;2024-01-30T08:49:03;17.30;;;11.10;;
20705;SDS011;10514;49.468;11.044;2024-01-30T08:51:32;17.33;;;10.30;;
20705;SDS011;10514;49.468;11.044;2024-01-30T08:53:58;16.80;;;10.47;;
20705;SDS011;10514;49.468;11.044;2024-01-30T08:56:24;14.00;;;9.83;;
20705;SDS011;10514;49.468;11.044;2024-01-30T08:58:49;18.83;;;9.97;;
20705;SDS011;10514;49.468;11.044;2024-01-30T09:01:15;16.90;;;10.23;;
20705;SDS011;10514;49.468;11.044;2024-01-30T09:03:40;15.10;;;10.10;;
20705;SDS011;10514;49.468;11.044;2024-01-30T09:06:08;16.23;;;10.43;;
20705;SDS011;10514;49.468;11.044;2024-01-30T09:08:34;15.43;;;10.10;;
20705;SDS011;10514;49.468;11.044;2024-01-30T09:11:00;17.27;;;10.40;;
20705;SDS011;10514;49.468;11.044;2024-01-30T09:13:25;17.50;;;10.63;;
20705;SDS011;10514;49.468;11.044;2024-01-30T09:15:51;16.17;;;10.63;;
20705;SDS011;10514;49.468;11.044;2024-01-30T09:18:17;14.60;;;9.57;;
20705;SDS011;10514;49.468;11.044;2024-01-30T09:20:43;15.50;;;10.90;;
20705;SDS011;10514;49.468;11.044;2024-01-30T09:23:12;16.27;;;10.37;;
20705;SDS011;10514;49.468;11.044;2024-01-30T09:25:38;16.03;;;9.73;;
20705;SDS011;10514;49.468;11.044;2024-01-30T09:28:03;15.93;;;10.00;;
20705;SDS011;10514;49.468;11.044;2024-01-30T09:30:29;14.77;;;9.30;;
20705;SDS011;10514;49.468;11.044;2024-01-30T09:32:55;17.17;;;9.90;;
20705;SDS011;10514;49.468;11.044;2024-01-30T09:35:20;14.37;;;10.57;;
20705;SDS011;10514;49.468;11.044;2024-01-30T09:37:46;15.57;;;10.03;;
20705;SDS011;10514;49.468;11.044;2024-01-30T09:40:11;15.20;;;9.77;;
20705;SDS011;10514;49.468;11.044;2024-01-30T09:42:37;15.70;;;10.37;;
20705;SDS011;10514;49.468;11.044;2024-01-30T09:45:03;15.67;;;10.43;;
20705;SDS011;10514;49.468;11.044;2024-01-30T09:47:42;14.63;;;10.37;;
20705;SDS011;10514;49.468;11.044;2024-01-30T09:50:09;17.37;;;10.67;;
20705;SDS011;10514;49.468;11.044;2024-01-30T09:52:39;16.53;;;11.30;;
20705;SDS011;10514;49.468;11.044;2024-01-30T09:55:05;15.87;;;10.03;;
20705;SDS011;10514;49.468;11.044;2024-01-30T09:57:32;14.27;;;10.20;;
20705;SDS011;10514;49.468;11.044;2024-01-30T09:59:57;14.90;;;9.60;;
20705;SDS011;10514;49.468;11.044;2024-01-30T10:02:23;16.20;;;10.17;;
20705;SDS011;10514;49.468;11.044;2024-01-30T10:04:49;14.33;;;9.87;;
20705;SDS011;10514;49.468;11.044;2024-01-30T10:07:16;17.03;;;10.23;;
20705;SDS011;10514;49.468;11.044;2024-01-30T10:09:43;15.97;;;9.77;;
20705;SDS011;10514;49.468;11.044;2024-01-30T10:12:09;15.00;;;10.03;;
20705;SDS011;10514;49.468;11.044;2024-01-30T10:14:41;14.87;;;10.07;;
20705;SDS011;10514;49.468;11.044;2024-01-30T10:17:07;14.27;;;9.57;;
20705;SDS011;10514;49.468;11.044;2024-01-30T10:19:34;13.17;;;9.33;;
20705;SDS011;10514;49.468;11.044;2024-01-30T10:22:00;12.60;;;9.27;;
20705;SDS011;10514;49.468;11.044;2024-01-30T10:24:26;14.70;;;10.10;;
20705;SDS011;10514;49.468;11.044;2024-01-30T10:26:54;15.27;;;10.63;;
20705;SDS011;10514;49.468;11.044;2024-01-30T10:29:19;14.67;;;10.10;;
20705;SDS011;10514;49.468;11.044;2024-01-30T10:31:45;13.87;;;9.53;;
20705;SDS011;10514;49.468;11.044;2024-01-30T10:34:12;14.33;;;9.50;;
20705;SDS011;10514;49.468;11.044;2024-01-30T10:36:40;14.40;;;9.20;;
20705;SDS011;10514;49.468;11.044;2024-01-30T10:39:08;13.57;;;8.95;;
20705;SDS011;10514;49.468;11.044;2024-01-30T10:41:35;17.53;;;11.23;;
20705;SDS011;10514;49.468;11.044;2024-01-30T10:44:08;15.90;;;10.07;;
20705;SDS011;10514;49.468;11.044;2024-01-30T10:46:35;14.30;;;10.30;;
20705;SDS011;10514;49.468;11.044;2024-01-30T10:49:03;14.60;;;9.87;;
20705;SDS011;10514;49.468;11.044;2024-01-30T10:51:31;14.37;;;10.00;;
20705;SDS011;10514;49.468;11.044;2024-01-30T10:53:57;13.87;;;9.33;;
20705;SDS011;10514;49.468;11.044;2024-01-30T10:56:23;15.77;;;9.70;;
20705;SDS011;10514;49.468;11.044;2024-01-30T10:58:50;15.53;;;9.73;;
20705;SDS011;10514;49.468;11.044;2024-01-30T11:01:17;15.03;;;9.37;;
20705;SDS011;10514;49.468;11.044;2024-01-30T11:03:51;15.25;;;10.25;;
20705;SDS011;10514;49.468;11.044;2024-01-30T11:06:17;15.40;;;9.63;;
20705;SDS011;10514;49.468;11.044;2024-01-30T11:08:44;13.80;;;9.53;;
20705;SDS011;10514;49.468;11.044;2024-01-30T11:11:25;15.50;;;9.63;;
20705;SDS011;10514;49.468;11.044;2024-01-30T11:13:50;12.87;;;9.67;;
20705;SDS011;10514;49.468;11.044;2024-01-30T11:16:16;16.70;;;10.93;;
20705;SDS011;10514;49.468;11.044;2024-01-30T11:18:42;17.67;;;9.70;;
20705;SDS011;10514;49.468;11.044;2024-01-30T11:21:07;15.50;;;10.53;;
20705;SDS011;10514;49.468;11.044;2024-01-30T11:23:33;14.70;;;9.83;;
20705;SDS011;10514;49.468;11.044;2024-01-30T11:26:00;15.73;;;9.87;;
20705;SDS011;10514;49.468;11.044;2024-01-30T11:28:32;14.53;;;9.80;;
20705;SDS011;10514;49.468;11.044;2024-01-30T11:31:03;15.97;;;10.00;;
20705;SDS011;10514;49.468;11.044;2024-01-30T11:33:29;12.70;;;8.80;;
20705;SDS011;10514;49.468;11.044;2024-01-30T11:35:56;14.07;;;9.80;;
20705;SDS011;10514;49.468;11.044;2024-01-30T11:38:27;14.33;;;9.30;;
20705;SDS011;10514;49.468;11.044;2024-01-30T11:40:56;14.83;;;10.00;;
20705;SDS011;10514;49.468;11.044;2024-01-30T11:43:22;14.30;;;9.23;;
20705;SDS011;10514;49.468;11.044;2024-01-30T11:45:48;12.03;;;8.50;;
20705;SDS011;10514;49.468;11.044;2024-01-30T11:48:14;13.83;;;9.37;;
20705;SDS011;10514;49.468;11.044;2024-01-30T11:50:40;13.73;;;8.80;;
20705;SDS011;10514;49.468;11.044;2024-01-30T11:53:06;14.67;;;9.50;;
20705;SDS011;10514;49.468;11.044;2024-01-30T11:55:31;13.03;;;9.40;;
20705;SDS011;10514;49.468;11.044;2024-01-30T11:57:58;14.47;;;9.77;;
20705;SDS011;10514;49.468;11.044;2024-01-30T12:00:24;13.77;;;9.17;;
20705;SDS011;10514;49.468;11.044;2024-01-30T12:02:50;14.50;;;9.87;;
20705;SDS011;10514;49.468;11.044;2024-01-30T12:05:20;20.30;;;11.73;;
20705;SDS011;10514;49.468;11.044;2024-01-30T12:07:46;31.87;;;17.17;;
20705;SDS011;10514;49.468;11.044;2024-01-30T12:10:15;15.03;;;9.30;;
20705;SDS011;10514;49.468;11.044;2024-01-30T12:12:47;14.40;;;9.00;;
20705;SDS011;10514;49.468;11.044;2024-01-30T12:15:14;12.97;;;8.90;;
20705;SDS011;10514;49.468;11.044;2024-01-30T12:17:41;15.50;;;8.73;;
20705;SDS011;10514;49.468;11.044;2024-01-30T12:22:40;15.13;;;8.97;;
20705;SDS011;10514;49.468;11.044;2024-01-30T12:25:12;14.60;;;9.53;;
20705;SDS011;10514;49.468;11.044;2024-01-30T12:27:39;12.23;;;8.80;;
20705;SDS011;10514;49.468;11.044;2024-01-30T12:30:08;14.10;;;9.10;;
20705;SDS011;10514;49.468;11.044;2024-01-30T12:32:36;12.00;;;8.70;;
20705;SDS011;10514;49.468;11.044;2024-01-30T12:35:07;13.03;;;8.77;;
20705;SDS011;10514;49.468;11.044;2024-01-30T12:37:37;11.20;;;8.70;;
20705;SDS011;10514;49.468;11.044;2024-01-30T12:40:03;12.90;;;8.93;;
20705;SDS011;10514;49.468;11.044;2024-01-30T12:42:29;13.00;;;8.03;;
20705;SDS011;10514;49.468;11.044;2024-01-30T12:44:56;14.13;;;8.77;;
20705;SDS011;10514;49.468;11.044;2024-01-30T12:47:23;13.73;;;8.80;;
20705;SDS011;10514;49.468;11.044;2024-01-30T12:49:49;13.07;;;8.50;;
20705;SDS011;10514;49.468;11.044;2024-01-30T12:52:18;14.37;;;9.47;;
20705;SDS011;10514;49.468;11.044;2024-01-30T12:54:44;11.67;;;8.47;;
20705;SDS011;10514;49.468;11.044;2024-01-30T12:57:09;11.23;;;8.23;;
20705;SDS011;10514;49.468;11.044;2024-01-30T12:59:35;10.87;;;7.43;;
20705;SDS011;10514;49.468;11.044;2024-01-30T13:02:00;10.93;;;8.33;;
20705;SDS011;10514;49.468;11.044;2024-01-30T13:04:28;14.73;;;8.50;;
20705;SDS011;10514;49.468;11.044;2024-01-30T13:06:54;12.03;;;8.13;;
20705;SDS011;10514;49.468;11.044;2024-01-30T13:09:19;15.93;;;8.57;;
20705;SDS011;10514;49.468;11.044;2024-01-30T13:11:45;12.30;;;8.37;;
20705;SDS011;10514;49.468;11.044;2024-01-30T13:14:11;11.57;;;8.13;;
20705;SDS011;10514;49.468;11.044;2024-01-30T13:16:38;13.53;;;8.03;;
20705;SDS011;10514;49.468;11.044;2024-01-30T13:19:03;10.80;;;7.53;;
20705;SDS011;10514;49.468;11.044;2024-01-30T13:21:29;12.30;;;8.00;;
20705;SDS011;10514;49.468;11.044;2024-01-30T13:23:54;12.83;;;7.87;;
20705;SDS011;10514;49.468;11.044;2024-01-30T13:26:20;12.20;;;8.50;;
20705;SDS011;10514;49.468;11.044;2024-01-30T13:28:46;11.23;;;8.10;;
20705;SDS011;10514;49.468;11.044;2024-01-30T13:31:12;15.00;;;8.67;;
20705;SDS011;10514;49.468;11.044;2024-01-30T13:33:39;13.40;;;8.40;;
20705;SDS011;10514;49.468;11.044;2024-01-30T13:36:05;14.03;;;8.90;;
20705;SDS011;10514;49.468;11.044;2024-01-30T13:38:31;12.67;;;7.70;;
20705;SDS011;10514;49.468;11.044;2024-01-30T13:40:57;14.43;;;8.50;;
20705;SDS011;10514;49.468;11.044;2024-01-30T13:43:22;12.50;;;7.43;;
20705;SDS011;10514;49.468;11.044;2024-01-30T13:45:48;14.35;;;8.23;;
20705;SDS011;10514;49.468;11.044;2024-01-30T13:48:13;14.90;;;8.57;;
20705;SDS011;10514;49.468;11.044;2024-01-30T13:50:39;15.63;;;9.10;;
20705;SDS011;10514;49.468;11.044;2024-01-30T13:53:04;15.93;;;9.10;;
20705;SDS011;10514;49.468;11.044;2024-01-30T13:55:30;15.73;;;8.73;;
20705;SDS011;10514;49.468;11.044;2024-01-30T13:57:55;12.20;;;8.70;;
20705;SDS011;10514;49.468;11.044;2024-01-30T14:00:21;12.77;;;8.60;;
20705;SDS011;10514;49.468;11.044;2024-01-30T14:02:48;11.93;;;8.33;;
20705;SDS011;10514;49.468;11.044;2024-01-30T14:05:13;13.43;;;9.27;;
20705;SDS011;10514;49.468;11.044;2024-01-30T14:07:40;15.77;;;8.87;;
20705;SDS011;10514;49.468;11.044;2024-01-30T14:10:07;12.73;;;8.27;;
20705;SDS011;10514;49.468;11.044;2024-01-30T14:12:35;13.13;;;8.90;;
20705;SDS011;10514;49.468;11.044;2024-01-30T14:15:01;14.13;;;8.75;;
20705;SDS011;10514;49.468;11.044;2024-01-30T14:17:27;11.17;;;8.00;;
20705;SDS011;10514;49.468;11.044;2024-01-30T14:19:52;11.57;;;8.43;;